createdAt,value
2023-05-24T00:00:13.341Z,100927.94
2023-05-24T00:02:42.254Z,100935.88
2023-05-24T00:05:11.019Z,100938.03
2023-05-24T00:07:38.618Z,100939.06
2023-05-24T00:10:07.032Z,100931.16
2023-05-24T00:12:35.534Z,100933.22
2023-05-24T00:15:03.049Z,100931.41
2023-05-24T00:17:31.006Z,100933.50
2023-05-24T00:19:58.437Z,100940.06
2023-05-24T00:22:26.197Z,100933.81
2023-05-24T00:24:53.458Z,100936.72
2023-05-24T00:27:20.839Z,100933.03
2023-05-24T00:29:47.961Z,100936.78
2023-05-24T00:32:15.188Z,100936.72
2023-05-24T00:34:42.384Z,100934.44
2023-05-24T00:37:09.444Z,100937.63
2023-05-24T00:39:36.676Z,100927.66
2023-05-24T00:42:04.509Z,100925.56
2023-05-24T00:44:32.473Z,100921.78
2023-05-24T00:47:00.743Z,100921.78
2023-05-24T00:49:28.158Z,100923.41
2023-05-24T00:51:55.580Z,100925.50
2023-05-24T00:54:22.806Z,100924.03
2023-05-24T00:56:49.941Z,100929.69
2023-05-24T00:59:16.970Z,100932.44
2023-05-24T01:01:47.248Z,100924.31
2023-05-24T01:04:14.946Z,100927.91
2023-05-24T01:07:18.212Z,100919.34
2023-05-24T01:10:04.352Z,100927.59
2023-05-24T01:12:51.055Z,100917.25
2023-05-24T01:15:23.870Z,100916.06
2023-05-24T01:18:07.961Z,100909.16
2023-05-24T01:20:38.909Z,100901.81
2023-05-24T01:23:11.850Z,100900.63
2023-05-24T01:26:17.798Z,100901.03
2023-05-24T01:28:47.545Z,100909.16
2023-05-24T01:31:17.960Z,100907.28
2023-05-24T01:33:45.556Z,100903.53
2023-05-24T01:36:12.628Z,100894.78
2023-05-24T01:38:40.599Z,100901.44
2023-05-24T01:41:22.863Z,100902.09
2023-05-24T01:44:02.067Z,100898.56
2023-05-24T01:46:39.605Z,100900.63
2023-05-24T01:49:19.183Z,100901.44
2023-05-24T01:51:54.335Z,100900.44
2023-05-24T01:54:25.928Z,100901.44
2023-05-24T01:56:55.527Z,100904.78
2023-05-24T01:59:26.200Z,100912.72
2023-05-24T02:01:54.003Z,100914.81
2023-05-24T02:04:21.119Z,100916.47
2023-05-24T02:06:48.480Z,100918.56
2023-05-24T02:09:15.991Z,100920.22
2023-05-24T02:11:43.026Z,100918.16
2023-05-24T02:14:10.201Z,100932.31
2023-05-24T02:16:42.902Z,100929.00
2023-05-24T02:19:10.105Z,100934.00
2023-05-24T02:21:37.949Z,100941.09
2023-05-24T02:24:05.999Z,100935.66
2023-05-24T02:26:33.115Z,100935.66
2023-05-24T02:29:00.158Z,100942.75
2023-05-24T02:31:28.874Z,100933.59
2023-05-24T02:33:58.679Z,100942.53
2023-05-24T02:36:27.664Z,100943.19
2023-05-24T02:38:54.679Z,100955.06
2023-05-24T02:41:22.323Z,100955.72
2023-05-24T02:43:49.546Z,100956.09
2023-05-24T02:46:16.927Z,100952.16
2023-05-24T02:48:44.182Z,100950.44
2023-05-24T02:51:11.201Z,100945.84
2023-05-24T02:53:38.348Z,100952.72
2023-05-24T02:56:05.762Z,100940.84
2023-05-24T02:58:32.889Z,100941.47
2023-05-24T03:00:59.959Z,100941.44
2023-05-24T03:03:27.288Z,100945.03
2023-05-24T03:05:54.336Z,100942.72
2023-05-24T03:08:21.876Z,100945.66
2023-05-24T03:10:49.038Z,100950.88
2023-05-24T03:13:16.598Z,100951.91
2023-05-24T03:15:44.345Z,100947.34
2023-05-24T03:18:11.447Z,100953.63
2023-05-24T03:20:38.601Z,100938.13
2023-05-24T03:23:07.624Z,100942.69
2023-05-24T03:25:34.989Z,100952.91
2023-05-24T03:28:02.728Z,100946.03
2023-05-24T03:30:29.988Z,100946.25
2023-05-24T03:32:57.277Z,100948.09
2023-05-24T03:35:24.698Z,100957.66
2023-05-24T03:37:51.760Z,100951.19
2023-05-24T03:40:19.072Z,100956.00
2023-05-24T03:42:46.213Z,100953.03
2023-05-24T03:45:14.965Z,100949.59
2023-05-24T03:47:46.398Z,100946.44
2023-05-24T03:50:14.431Z,100950.00
2023-05-24T03:52:42.844Z,100955.03
2023-05-24T03:55:10.078Z,100954.00
2023-05-24T03:57:37.376Z,100946.28
2023-05-24T04:00:07.328Z,100942.47
2023-05-24T04:02:35.106Z,100954.97
2023-05-24T04:05:02.377Z,100950.34
2023-05-24T04:07:29.658Z,100951.13
2023-05-24T04:09:57.817Z,100945.22
2023-05-24T04:12:25.236Z,100944.75
2023-05-24T04:14:52.494Z,100944.66
2023-05-24T04:17:19.684Z,100941.75
2023-05-24T04:19:46.972Z,100951.16
2023-05-24T04:22:13.979Z,100947.91
2023-05-24T04:24:41.095Z,100952.66
2023-05-24T04:27:08.208Z,100955.81
2023-05-24T04:29:35.652Z,100952.34
2023-05-24T04:32:02.878Z,100954.94
2023-05-24T04:34:33.962Z,100958.19
2023-05-24T04:37:01.162Z,100950.72
2023-05-24T04:39:30.477Z,100950.44
2023-05-24T04:41:58.304Z,100953.31
2023-05-24T04:44:25.499Z,100960.50
2023-05-24T04:46:53.258Z,100963.41
2023-05-24T04:49:20.549Z,100958.84
2023-05-24T04:51:47.778Z,100959.53
2023-05-24T04:54:14.960Z,100956.81
2023-05-24T04:56:41.974Z,100961.03
2023-05-24T04:59:10.661Z,100963.78
2023-05-24T05:01:39.513Z,100966.16
2023-05-24T05:04:08.014Z,100972.38
2023-05-24T05:06:38.987Z,100970.75
2023-05-24T05:09:11.749Z,100986.41
2023-05-24T05:11:39.621Z,100981.28
2023-05-24T05:14:09.834Z,100985.47
2023-05-24T05:16:39.028Z,100995.47
2023-05-24T05:19:06.429Z,100991.28
2023-05-24T05:21:34.557Z,100990.91
2023-05-24T05:24:02.465Z,100992.34
2023-05-24T05:26:30.303Z,100993.97
2023-05-24T05:28:58.113Z,101000.16
2023-05-24T05:31:25.884Z,100992.94
2023-05-24T05:33:53.487Z,100994.03
2023-05-24T05:36:20.580Z,101005.94
2023-05-24T05:38:47.830Z,100998.50
2023-05-24T05:41:14.824Z,101004.06
2023-05-24T05:43:42.201Z,101001.34
2023-05-24T05:46:11.257Z,101003.47
2023-05-24T05:48:39.678Z,101006.81
2023-05-24T05:51:06.870Z,101007.78
2023-05-24T05:53:34.835Z,101002.91
2023-05-24T05:56:02.173Z,101017.22
2023-05-24T05:58:29.244Z,101015.09
2023-05-24T06:00:56.336Z,101015.94
2023-05-24T06:03:23.823Z,101017.38
2023-05-24T06:05:51.405Z,101018.91
2023-05-24T06:08:18.555Z,101020.78
2023-05-24T06:10:45.802Z,101006.69
2023-05-24T06:13:14.025Z,101011.19
2023-05-24T06:15:41.315Z,101007.16
2023-05-24T06:18:08.469Z,101003.09
2023-05-24T06:20:37.107Z,100999.56
2023-05-24T06:23:05.209Z,101010.47
2023-05-24T06:25:33.109Z,101006.31
2023-05-24T06:28:00.364Z,101006.31
2023-05-24T06:30:27.533Z,101013.19
2023-05-24T06:32:56.419Z,101009.03
2023-05-24T06:35:23.633Z,101010.19
2023-05-24T06:37:50.822Z,101012.66
2023-05-24T06:40:17.996Z,101013.47
2023-05-24T06:42:45.064Z,101019.06
2023-05-24T06:45:12.195Z,101013.84
2023-05-24T06:47:39.527Z,101014.44
2023-05-24T06:50:07.505Z,101011.94
2023-05-24T06:52:35.412Z,101013.78
2023-05-24T06:55:02.593Z,101009.81
2023-05-24T06:57:30.200Z,101019.75
2023-05-24T06:59:57.416Z,101018.13
2023-05-24T07:02:27.678Z,101013.84
2023-05-24T07:04:55.082Z,101020.66
2023-05-24T07:07:22.440Z,101007.88
2023-05-24T07:09:49.600Z,101013.50
2023-05-24T07:12:17.118Z,101016.00
2023-05-24T07:14:44.701Z,101006.22
2023-05-24T07:17:11.881Z,101012.84
2023-05-24T07:19:39.229Z,101020.47
2023-05-24T07:22:06.596Z,101012.19
2023-05-24T07:24:33.860Z,101013.94
2023-05-24T07:27:00.925Z,101027.97
2023-05-24T07:29:28.254Z,101028.59
2023-05-24T07:31:56.605Z,101031.34
2023-05-24T07:34:27.543Z,101030.25
2023-05-24T07:36:54.880Z,101024.69
2023-05-24T07:39:22.012Z,101029.31
2023-05-24T07:41:49.219Z,101021.28
2023-05-24T07:44:16.458Z,101035.22
2023-05-24T07:46:43.657Z,101028.69
2023-05-24T07:49:11.175Z,101037.34
2023-05-24T07:51:39.200Z,101038.78
2023-05-24T07:54:06.616Z,101020.19
2023-05-24T07:56:33.801Z,101021.19
2023-05-24T07:59:04.971Z,101018.94
2023-05-24T08:01:34.561Z,101021.34
2023-05-24T08:04:06.127Z,101006.59
2023-05-24T08:06:33.680Z,101011.59
2023-05-24T08:09:01.917Z,101013.63
2023-05-24T08:11:29.045Z,101014.59
2023-05-24T08:13:56.145Z,101009.81
2023-05-24T08:16:24.569Z,101008.13
2023-05-24T08:18:54.791Z,101005.81
2023-05-24T08:21:22.680Z,100996.00
2023-05-24T08:23:50.034Z,100999.97
2023-05-24T08:26:19.422Z,100996.25
2023-05-24T08:28:46.656Z,100988.41
2023-05-24T08:31:13.997Z,100984.56
2023-05-24T08:33:41.566Z,100982.75
2023-05-24T08:36:08.788Z,100986.66
2023-05-24T08:38:36.261Z,100983.00
2023-05-24T08:41:07.433Z,100988.03
2023-05-24T08:43:35.544Z,100993.28
2023-05-24T08:46:04.266Z,100989.66
2023-05-24T08:48:32.277Z,100974.25
2023-05-24T08:50:59.687Z,100977.88
2023-05-24T08:53:27.566Z,100981.03
2023-05-24T08:55:56.490Z,100975.53
2023-05-24T08:58:24.776Z,100972.22
2023-05-24T09:00:51.940Z,100977.75
2023-05-24T09:03:20.100Z,100975.25
2023-05-24T09:05:47.817Z,100967.88
2023-05-24T09:08:18.305Z,100964.03
2023-05-24T09:10:54.926Z,100955.75
2023-05-24T09:13:24.500Z,100966.28
2023-05-24T09:15:51.605Z,100962.41
2023-05-24T09:18:19.136Z,100961.56
2023-05-24T09:20:47.286Z,100962.38
2023-05-24T09:23:16.331Z,100968.19
2023-05-24T09:25:45.237Z,100966.16
2023-05-24T09:28:20.825Z,100973.16
2023-05-24T09:31:05.337Z,100970.97
2023-05-24T09:33:34.900Z,100976.56
2023-05-24T09:36:04.964Z,100982.44
2023-05-24T09:38:32.519Z,100986.22
2023-05-24T09:41:04.694Z,100990.94
2023-05-24T09:43:34.654Z,100994.16
2023-05-24T09:46:05.773Z,101000.22
2023-05-24T09:48:33.065Z,101007.56
2023-05-24T09:51:06.676Z,101005.31
2023-05-24T09:53:36.168Z,101006.22
2023-05-24T09:56:05.710Z,101010.44
2023-05-24T09:58:33.782Z,101010.56
2023-05-24T10:01:10.935Z,101008.31
2023-05-24T10:03:38.667Z,101011.03
2023-05-24T10:06:08.409Z,101004.97
2023-05-24T10:08:36.866Z,101005.56
2023-05-24T10:11:06.848Z,101005.53
2023-05-24T10:13:36.717Z,101003.22
2023-05-24T10:16:04.360Z,101005.53
2023-05-24T10:18:32.191Z,101015.94
2023-05-24T10:21:01.953Z,101019.84
2023-05-24T10:23:33.573Z,101028.69
2023-05-24T10:26:06.661Z,101030.00
2023-05-24T10:28:44.874Z,101036.00
2023-05-24T10:31:17.494Z,101035.16
2023-05-24T10:33:48.594Z,101030.19
2023-05-24T10:36:16.654Z,101028.63
2023-05-24T10:38:46.724Z,101029.59
2023-05-24T10:41:14.370Z,101027.72
2023-05-24T10:43:56.755Z,101017.94
2023-05-24T10:46:34.073Z,101022.25
2023-05-24T10:49:02.754Z,101020.19
2023-05-24T10:51:36.674Z,101016.09
2023-05-24T10:54:18.412Z,101011.66
2023-05-24T10:56:50.640Z,101010.44
2023-05-24T10:59:24.640Z,101011.81
2023-05-24T11:01:57.791Z,101015.63
2023-05-24T11:04:25.321Z,101022.75
2023-05-24T11:06:58.414Z,101025.88
2023-05-24T11:09:27.597Z,101024.53
2023-05-24T11:12:22.811Z,101027.88
2023-05-24T11:14:53.933Z,101019.03
2023-05-24T11:17:23.021Z,101018.66
2023-05-24T11:19:54.589Z,101025.50
2023-05-24T11:22:24.447Z,101020.59
2023-05-24T11:24:54.555Z,101020.81
2023-05-24T11:27:22.315Z,101020.88
2023-05-24T11:29:49.728Z,101035.97
2023-05-24T11:32:20.695Z,101022.63
2023-05-24T11:34:49.163Z,101024.13
2023-05-24T11:37:18.301Z,101016.00
2023-05-24T11:39:52.916Z,101018.66
2023-05-24T11:42:23.152Z,101029.03
2023-05-24T11:44:50.646Z,101029.03
2023-05-24T11:47:21.366Z,101017.00
2023-05-24T11:49:52.489Z,101010.00
2023-05-24T11:52:20.443Z,101009.50
2023-05-24T11:54:47.632Z,101008.75
2023-05-24T11:57:15.921Z,101006.25
2023-05-24T11:59:43.002Z,100997.00
2023-05-24T12:02:10.651Z,100993.94
2023-05-24T12:04:38.216Z,100987.75
2023-05-24T12:07:12.108Z,100992.69
2023-05-24T12:09:39.224Z,100987.06
2023-05-24T12:12:07.452Z,100991.16
2023-05-24T12:14:36.203Z,100982.88
2023-05-24T12:17:03.208Z,100981.91
2023-05-24T12:19:35.167Z,100981.59
2023-05-24T12:22:07.754Z,100987.53
2023-05-24T12:24:35.706Z,100983.84
2023-05-24T12:27:07.825Z,100976.75
2023-05-24T12:29:38.845Z,100976.69
2023-05-24T12:32:12.430Z,100974.88
2023-05-24T12:34:44.297Z,100968.81
2023-05-24T12:37:13.188Z,100970.78
2023-05-24T12:39:43.824Z,100964.53
2023-05-24T12:42:13.575Z,100969.00
2023-05-24T12:44:41.113Z,100964.78
2023-05-24T12:47:09.190Z,100968.06
2023-05-24T12:49:37.052Z,100984.25
2023-05-24T12:52:04.631Z,100990.81
2023-05-24T12:54:32.111Z,100986.25
2023-05-24T12:57:05.589Z,100973.63
2023-05-24T12:59:33.886Z,100978.38
2023-05-24T13:02:01.057Z,100988.06
2023-05-24T13:04:28.269Z,100984.91
2023-05-24T13:06:55.886Z,100979.16
2023-05-24T13:09:23.925Z,100976.69
2023-05-24T13:11:52.489Z,100978.31
2023-05-24T13:14:21.084Z,100973.94
2023-05-24T13:16:48.488Z,100976.72
2023-05-24T13:19:15.665Z,100966.56
2023-05-24T13:21:42.934Z,100965.63
2023-05-24T13:24:10.174Z,100971.53
2023-05-24T13:26:38.969Z,100978.72
2023-05-24T13:31:41.201Z,100969.88
2023-05-24T13:34:10.887Z,100972.97
2023-05-24T13:36:38.593Z,100976.53
2023-05-24T13:41:40.271Z,100969.13
2023-05-24T13:44:08.790Z,100962.06
2023-05-24T13:46:36.622Z,100970.50
2023-05-24T13:49:04.587Z,100968.94
2023-05-24T13:51:31.962Z,100961.94
2023-05-24T13:53:59.771Z,100959.75
2023-05-24T13:56:32.833Z,100949.94
2023-05-24T13:59:02.819Z,100947.22
2023-05-24T14:01:30.683Z,100946.19
2023-05-24T14:04:01.382Z,100939.19
2023-05-24T14:06:28.440Z,100933.91
2023-05-24T14:08:55.732Z,100935.69
2023-05-24T14:11:24.800Z,100930.03
2023-05-24T14:16:22.624Z,100925.91
2023-05-24T14:18:51.737Z,100920.47
2023-05-24T14:21:21.784Z,100912.56
2023-05-24T14:23:49.830Z,100916.69
2023-05-24T14:26:17.833Z,100910.06
2023-05-24T14:28:45.155Z,100918.50
2023-05-24T14:31:12.443Z,100919.34
2023-05-24T14:33:40.851Z,100926.72
2023-05-24T14:36:08.462Z,100928.66
2023-05-24T14:38:35.563Z,100935.53
2023-05-24T14:41:03.038Z,100928.72
2023-05-24T14:43:30.302Z,100924.47
2023-05-24T14:45:57.698Z,100925.00
2023-05-24T14:48:24.860Z,100931.50
2023-05-24T14:50:52.521Z,100935.91
2023-05-24T14:53:20.170Z,100928.72
2023-05-24T14:55:47.430Z,100942.13
2023-05-24T14:58:15.861Z,100937.44
2023-05-24T15:00:43.920Z,100937.97
2023-05-24T15:03:14.570Z,100940.91
2023-05-24T15:05:43.125Z,100930.56
2023-05-24T15:08:11.651Z,100928.81
2023-05-24T15:10:44.612Z,100930.75
2023-05-24T15:13:13.361Z,100924.81
2023-05-24T15:15:40.525Z,100918.75
2023-05-24T15:18:08.252Z,100919.16
2023-05-24T15:20:36.629Z,100934.34
2023-05-24T15:23:04.203Z,100924.94
2023-05-24T15:25:31.525Z,100917.75
2023-05-24T15:27:58.913Z,100921.34
2023-05-24T15:30:26.154Z,100916.00
2023-05-24T15:32:53.334Z,100915.94
2023-05-24T15:35:20.450Z,100910.28
2023-05-24T15:37:47.465Z,100911.28
2023-05-24T15:40:15.247Z,100917.06
2023-05-24T15:42:42.701Z,100913.31
2023-05-24T15:45:10.721Z,100914.06
2023-05-24T15:47:40.439Z,100916.00
2023-05-24T15:50:09.172Z,100918.00
2023-05-24T15:52:37.002Z,100906.56
2023-05-24T15:55:05.022Z,100905.31
2023-05-24T15:57:32.372Z,100913.75
2023-05-24T15:59:59.858Z,100906.09
2023-05-24T16:02:27.206Z,100908.38
2023-05-24T16:04:55.575Z,100911.25
2023-05-24T16:07:22.755Z,100906.56
2023-05-24T16:09:52.635Z,100905.25
2023-05-24T16:12:19.821Z,100905.19
2023-05-24T16:14:47.180Z,100902.50
2023-05-24T16:17:15.382Z,100910.66
2023-05-24T16:19:42.573Z,100916.72
2023-05-24T16:22:09.615Z,100909.53
2023-05-24T16:24:36.706Z,100911.63
2023-05-24T16:27:04.243Z,100915.28
2023-05-24T16:29:31.558Z,100910.38
2023-05-24T16:31:58.873Z,100906.47
2023-05-24T16:34:26.098Z,100906.88
2023-05-24T16:36:53.251Z,100907.84
2023-05-24T16:39:20.389Z,100908.78
2023-05-24T16:41:48.012Z,100911.78
2023-05-24T16:44:18.040Z,100918.47
2023-05-24T16:46:46.260Z,100928.28
2023-05-24T16:49:13.563Z,100924.84
2023-05-24T16:51:40.805Z,100926.19
2023-05-24T16:54:09.276Z,100931.34
2023-05-24T16:56:37.857Z,100928.03
2023-05-24T16:59:05.165Z,100934.59
2023-05-24T17:01:32.775Z,100932.03
2023-05-24T17:04:00.096Z,100936.03
2023-05-24T17:06:27.739Z,100941.16
2023-05-24T17:08:54.899Z,100947.66
2023-05-24T17:11:23.272Z,100952.47
2023-05-24T17:13:51.862Z,100960.91
2023-05-24T17:16:19.398Z,100965.66
2023-05-24T17:18:46.596Z,100963.75
2023-05-24T17:21:13.872Z,100967.06
2023-05-24T17:23:41.059Z,100967.56
2023-05-24T17:26:08.891Z,100963.41
2023-05-24T17:28:36.478Z,100968.53
2023-05-24T17:31:03.973Z,100973.72
2023-05-24T17:33:32.366Z,100965.31
2023-05-24T17:36:06.493Z,100971.38
2023-05-24T17:38:34.063Z,100982.81
2023-05-24T17:41:01.277Z,100975.19
2023-05-24T17:43:34.674Z,100981.34
2023-05-24T17:46:04.056Z,101005.22
2023-05-24T17:48:39.223Z,101004.22
2023-05-24T17:51:08.356Z,101005.66
2023-05-24T17:53:41.126Z,100997.69
2023-05-24T17:56:08.949Z,101004.63
2023-05-24T17:58:37.331Z,101009.72
2023-05-24T18:01:06.163Z,101007.94
2023-05-24T18:03:39.285Z,101005.56
2023-05-24T18:06:07.677Z,101015.53
2023-05-24T18:08:38.004Z,101015.16
2023-05-24T18:11:08.658Z,101024.91
2023-05-24T18:13:38.160Z,101024.34
2023-05-24T18:16:06.825Z,101032.81
2023-05-24T18:18:34.643Z,101034.81
2023-05-24T18:21:01.870Z,101030.91
2023-05-24T18:23:29.284Z,101026.53
2023-05-24T18:26:01.203Z,101019.97
2023-05-24T18:28:30.851Z,101028.69
2023-05-24T18:30:58.268Z,101033.63
2023-05-24T18:33:25.700Z,101028.53
2023-05-24T18:35:53.137Z,101035.22
2023-05-24T18:38:20.941Z,101028.91
2023-05-24T18:40:48.235Z,101029.13
2023-05-24T18:43:16.135Z,101020.94
2023-05-24T18:45:43.614Z,101026.38
2023-05-24T18:48:10.951Z,101029.00
2023-05-24T18:50:38.336Z,101027.13
2023-05-24T18:53:05.664Z,101035.06
2023-05-24T18:55:33.125Z,101033.16
2023-05-24T18:58:00.600Z,101042.44
2023-05-24T19:00:27.771Z,101043.72
2023-05-24T19:02:55.670Z,101045.72
2023-05-24T19:05:22.892Z,101061.88
2023-05-24T19:07:50.487Z,101051.66
2023-05-24T19:10:17.871Z,101054.28
2023-05-24T19:12:45.052Z,101060.53
2023-05-24T19:15:12.361Z,101061.25
2023-05-24T19:17:39.512Z,101067.56
2023-05-24T19:20:08.058Z,101074.88
2023-05-24T19:22:35.492Z,101068.59
2023-05-24T19:25:02.745Z,101065.13
2023-05-24T19:27:30.004Z,101060.66
2023-05-24T19:29:59.355Z,101066.41
2023-05-24T19:32:26.617Z,101069.34
2023-05-24T19:34:53.831Z,101058.91
2023-05-24T19:37:21.115Z,101063.25
2023-05-24T19:39:48.404Z,101077.72
2023-05-24T19:42:15.472Z,101075.34
2023-05-24T19:44:42.922Z,101067.75
2023-05-24T19:47:11.737Z,101064.88
2023-05-24T19:49:38.915Z,101064.88
2023-05-24T19:52:06.271Z,101056.56
2023-05-24T19:54:34.466Z,101063.28
2023-05-24T19:57:02.075Z,101058.66
2023-05-24T19:59:29.787Z,101062.47
2023-05-24T20:01:57.221Z,101060.81
2023-05-24T20:04:24.435Z,101055.91
2023-05-24T20:06:53.422Z,101055.63
2023-05-24T20:09:20.847Z,101050.13
2023-05-24T20:11:48.073Z,101052.25
2023-05-24T20:14:15.657Z,101055.16
2023-05-24T20:16:42.922Z,101048.22
2023-05-24T20:19:12.822Z,101060.03
2023-05-24T20:21:39.858Z,101057.25
2023-05-24T20:24:07.075Z,101054.34
2023-05-24T20:26:35.198Z,101057.84
2023-05-24T20:29:02.416Z,101049.69
2023-05-24T20:31:29.772Z,101056.00
2023-05-24T20:33:57.971Z,101057.38
2023-05-24T20:36:25.458Z,101063.25
2023-05-24T20:38:52.765Z,101050.69
2023-05-24T20:41:19.938Z,101047.41
2023-05-24T20:43:47.410Z,101041.22
2023-05-24T20:46:14.772Z,101038.88
2023-05-24T20:48:43.392Z,101041.38
2023-05-24T20:51:10.631Z,101030.97
2023-05-24T20:53:39.089Z,101031.19
2023-05-24T20:56:06.542Z,101022.19
2023-05-24T20:58:35.548Z,101034.38
2023-05-24T21:01:03.016Z,101025.75
2023-05-24T21:03:30.179Z,101034.69
2023-05-24T21:05:57.476Z,101022.19
2023-05-24T21:08:24.484Z,101026.06
2023-05-24T21:10:51.657Z,101018.19
2023-05-24T21:13:20.592Z,101022.19
2023-05-24T21:15:48.080Z,101021.69
2023-05-24T21:18:15.542Z,101021.59
2023-05-24T21:20:42.985Z,101030.09
2023-05-24T21:23:11.115Z,101020.25
2023-05-24T21:25:38.531Z,101016.75
2023-05-24T21:28:05.816Z,101011.78
2023-05-24T21:30:33.549Z,101010.50
2023-05-24T21:33:01.260Z,101008.59
2023-05-24T21:35:28.663Z,101014.75
2023-05-24T21:37:56.234Z,101019.41
2023-05-24T21:40:23.735Z,101025.91
2023-05-24T21:42:51.026Z,101025.53
2023-05-24T21:45:18.718Z,101018.31
2023-05-24T21:47:45.992Z,101026.22
2023-05-24T21:50:13.553Z,101016.75
2023-05-24T21:52:41.021Z,101023.59
2023-05-24T21:55:08.435Z,101016.69
2023-05-24T21:57:36.044Z,101023.03
2023-05-24T22:00:04.258Z,101019.25
2023-05-24T22:02:32.474Z,101018.31
2023-05-24T22:04:59.667Z,101017.94
2023-05-24T22:07:27.020Z,101016.97
2023-05-24T22:09:54.192Z,101009.22
2023-05-24T22:12:21.338Z,101002.34
2023-05-24T22:14:48.782Z,101004.69
2023-05-24T22:17:16.650Z,100991.63
2023-05-24T22:19:44.116Z,101001.47
2023-05-24T22:22:12.581Z,100995.41
2023-05-24T22:24:40.976Z,101000.56
2023-05-24T22:27:13.700Z,100998.00
2023-05-24T22:29:41.153Z,101002.66
2023-05-24T22:32:08.217Z,101009.31
2023-05-24T22:34:35.628Z,101011.00
2023-05-24T22:37:02.997Z,101015.69
2023-05-24T22:39:30.510Z,101013.84
2023-05-24T22:41:57.556Z,101024.72
2023-05-24T22:44:24.561Z,101027.44
2023-05-24T22:46:54.356Z,101038.22
2023-05-24T22:49:21.539Z,101034.13
2023-05-24T22:51:50.849Z,101043.56
2023-05-24T22:54:18.211Z,101044.50
2023-05-24T22:56:46.535Z,101048.66
2023-05-24T22:59:13.767Z,101037.19
2023-05-24T23:01:40.983Z,101036.38
2023-05-24T23:04:20.749Z,101035.31
2023-05-24T23:06:52.890Z,101038.63
2023-05-24T23:09:29.425Z,101039.06
2023-05-24T23:11:58.677Z,101026.75
2023-05-24T23:14:26.223Z,101030.38
2023-05-24T23:16:53.445Z,101021.63
2023-05-24T23:19:20.498Z,101029.75
2023-05-24T23:21:47.576Z,101035.81
2023-05-24T23:24:16.116Z,101036.66
2023-05-24T23:26:43.749Z,101039.78
2023-05-24T23:29:10.954Z,101044.53
2023-05-24T23:31:38.210Z,101055.00
2023-05-24T23:34:05.926Z,101041.19
2023-05-24T23:36:33.964Z,101051.22
2023-05-24T23:39:01.030Z,101056.91
2023-05-24T23:41:28.218Z,101064.25
2023-05-24T23:43:55.440Z,101064.81
2023-05-24T23:46:22.947Z,101060.53
2023-05-24T23:48:50.124Z,101067.22
2023-05-24T23:51:17.471Z,101068.88
2023-05-24T23:53:44.614Z,101078.50
2023-05-24T23:56:11.885Z,101082.66
2023-05-24T23:58:39.174Z,101076.41
